sensor_id;sensor_type;location;lat;lon;timestamp;P1;durP1;ratioP1;P2;durP2;ratioP2
74674;SDS011;63200;48.810;12.352;2024-03-02T00:00:57;107.05;;;37.13;;
74674;SDS011;63200;48.810;12.352;2024-03-02T00:03:22;100.97;;;37.58;;
74674;SDS011;63200;48.810;12.352;2024-03-02T00:05:50;104.50;;;37.47;;
74674;SDS011;63200;48.810;12.352;2024-03-02T00:08:22;93.05;;;36.08;;
74674;SDS011;63200;48.810;12.352;2024-03-02T00:10:49;102.63;;;37.00;;
74674;SDS011;63200;48.810;12.352;2024-03-02T00:13:15;103.43;;;37.83;;
74674;SDS011;63200;48.810;12.352;2024-03-02T00:15:41;105.78;;;38.10;;
74674;SDS011;63200;48.810;12.352;2024-03-02T00:18:24;101.82;;;36.30;;
74674;SDS011;63200;48.810;12.352;2024-03-02T00:20:55;102.00;;;37.17;;
74674;SDS011;63200;48.810;12.352;2024-03-02T00:23:21;106.25;;;37.15;;
74674;SDS011;63200;48.810;12.352;2024-03-02T00:25:48;98.25;;;36.45;;
74674;SDS011;63200;48.810;12.352;2024-03-02T00:28:22;102.20;;;36.38;;
74674;SDS011;63200;48.810;12.352;2024-03-02T00:31:08;92.55;;;35.75;;
74674;SDS011;63200;48.810;12.352;2024-03-02T00:33:37;100.05;;;36.83;;
74674;SDS011;63200;48.810;12.352;2024-03-02T00:36:08;96.15;;;35.33;;
74674;SDS011;63200;48.810;12.352;2024-03-02T00:38:34;97.07;;;37.35;;
74674;SDS011;63200;48.810;12.352;2024-03-02T00:41:11;101.30;;;36.97;;
74674;SDS011;63200;48.810;12.352;2024-03-02T00:43:57;107.40;;;36.67;;
74674;SDS011;63200;48.810;12.352;2024-03-02T00:46:29;98.18;;;36.45;;
74674;SDS011;63200;48.810;12.352;2024-03-02T00:48:59;91.35;;;35.88;;
74674;SDS011;63200;48.810;12.352;2024-03-02T00:51:26;104.63;;;37.97;;
74674;SDS011;63200;48.810;12.352;2024-03-02T00:53:55;105.35;;;37.63;;
74674;SDS011;63200;48.810;12.352;2024-03-02T00:56:25;102.28;;;37.63;;
74674;SDS011;63200;48.810;12.352;2024-03-02T00:58:51;97.70;;;36.22;;
74674;SDS011;63200;48.810;12.352;2024-03-02T01:01:17;89.55;;;34.53;;
74674;SDS011;63200;48.810;12.352;2024-03-02T01:03:42;88.03;;;34.97;;
74674;SDS011;63200;48.810;12.352;2024-03-02T01:06:08;99.65;;;36.72;;
74674;SDS011;63200;48.810;12.352;2024-03-02T01:08:37;98.20;;;37.08;;
74674;SDS011;63200;48.810;12.352;2024-03-02T01:11:03;99.85;;;37.92;;
74674;SDS011;63200;48.810;12.352;2024-03-02T01:13:29;110.75;;;40.15;;
74674;SDS011;63200;48.810;12.352;2024-03-02T01:15:55;109.13;;;40.28;;
74674;SDS011;63200;48.810;12.352;2024-03-02T01:18:21;127.10;;;43.47;;
74674;SDS011;63200;48.810;12.352;2024-03-02T01:20:47;144.27;;;43.85;;
74674;SDS011;63200;48.810;12.352;2024-03-02T01:23:12;143.20;;;43.40;;
74674;SDS011;63200;48.810;12.352;2024-03-02T01:25:37;117.10;;;41.15;;
74674;SDS011;63200;48.810;12.352;2024-03-02T01:28:03;119.72;;;41.72;;
74674;SDS011;63200;48.810;12.352;2024-03-02T01:30:29;109.03;;;39.45;;
74674;SDS011;63200;48.810;12.352;2024-03-02T01:32:54;127.90;;;42.63;;
74674;SDS011;63200;48.810;12.352;2024-03-02T01:35:20;129.05;;;41.22;;
74674;SDS011;63200;48.810;12.352;2024-03-02T01:37:45;133.07;;;41.10;;
74674;SDS011;63200;48.810;12.352;2024-03-02T01:40:10;119.93;;;41.58;;
74674;SDS011;63200;48.810;12.352;2024-03-02T01:42:36;126.30;;;41.65;;
74674;SDS011;63200;48.810;12.352;2024-03-02T01:45:03;122.97;;;41.47;;
74674;SDS011;63200;48.810;12.352;2024-03-02T01:47:33;135.60;;;44.35;;
74674;SDS011;63200;48.810;12.352;2024-03-02T01:49:58;144.57;;;45.10;;
74674;SDS011;63200;48.810;12.352;2024-03-02T01:52:24;145.18;;;45.15;;
74674;SDS011;63200;48.810;12.352;2024-03-02T01:54:50;144.32;;;46.28;;
74674;SDS011;63200;48.810;12.352;2024-03-02T01:57:15;154.93;;;46.72;;
74674;SDS011;63200;48.810;12.352;2024-03-02T01:59:41;163.65;;;47.42;;
74674;SDS011;63200;48.810;12.352;2024-03-02T02:02:06;138.05;;;43.97;;
74674;SDS011;63200;48.810;12.352;2024-03-02T02:04:32;129.65;;;43.13;;
74674;SDS011;63200;48.810;12.352;2024-03-02T02:06:57;121.68;;;42.22;;
74674;SDS011;63200;48.810;12.352;2024-03-02T02:09:23;124.82;;;40.97;;
74674;SDS011;63200;48.810;12.352;2024-03-02T02:11:50;130.05;;;43.30;;
74674;SDS011;63200;48.810;12.352;2024-03-02T02:14:15;133.40;;;44.22;;
74674;SDS011;63200;48.810;12.352;2024-03-02T02:16:40;136.15;;;45.28;;
74674;SDS011;63200;48.810;12.352;2024-03-02T02:19:06;124.22;;;43.28;;
74674;SDS011;63200;48.810;12.352;2024-03-02T02:21:31;121.47;;;41.60;;
74674;SDS011;63200;48.810;12.352;2024-03-02T02:23:56;104.95;;;38.53;;
74674;SDS011;63200;48.810;12.352;2024-03-02T02:26:22;107.93;;;39.72;;
74674;SDS011;63200;48.810;12.352;2024-03-02T02:28:47;116.60;;;39.67;;
74674;SDS011;63200;48.810;12.352;2024-03-02T02:31:12;113.10;;;38.38;;
74674;SDS011;63200;48.810;12.352;2024-03-02T02:33:41;107.53;;;39.72;;
74674;SDS011;63200;48.810;12.352;2024-03-02T02:36:07;122.65;;;41.88;;
74674;SDS011;63200;48.810;12.352;2024-03-02T02:38:33;112.75;;;39.45;;
74674;SDS011;63200;48.810;12.352;2024-03-02T02:41:01;102.93;;;38.75;;
74674;SDS011;63200;48.810;12.352;2024-03-02T02:43:27;119.38;;;40.28;;
74674;SDS011;63200;48.810;12.352;2024-03-02T02:45:52;116.05;;;40.25;;
74674;SDS011;63200;48.810;12.352;2024-03-02T02:48:17;117.70;;;42.35;;
74674;SDS011;63200;48.810;12.352;2024-03-02T02:50:43;116.30;;;41.00;;
74674;SDS011;63200;48.810;12.352;2024-03-02T02:53:08;124.32;;;42.08;;
74674;SDS011;63200;48.810;12.352;2024-03-02T02:55:35;134.07;;;43.65;;
74674;SDS011;63200;48.810;12.352;2024-03-02T02:58:02;144.73;;;44.47;;
74674;SDS011;63200;48.810;12.352;2024-03-02T03:00:28;148.20;;;45.17;;
74674;SDS011;63200;48.810;12.352;2024-03-02T03:02:53;143.48;;;44.20;;
74674;SDS011;63200;48.810;12.352;2024-03-02T03:05:19;131.10;;;42.92;;
74674;SDS011;63200;48.810;12.352;2024-03-02T03:07:44;124.28;;;40.70;;
74674;SDS011;63200;48.810;12.352;2024-03-02T03:10:10;120.20;;;40.22;;
74674;SDS011;63200;48.810;12.352;2024-03-02T03:12:35;118.07;;;40.25;;
74674;SDS011;63200;48.810;12.352;2024-03-02T03:15:01;124.53;;;42.13;;
74674;SDS011;63200;48.810;12.352;2024-03-02T03:17:26;125.63;;;42.60;;
74674;SDS011;63200;48.810;12.352;2024-03-02T03:19:54;126.53;;;40.78;;
74674;SDS011;63200;48.810;12.352;2024-03-02T03:22:20;121.57;;;39.97;;
74674;SDS011;63200;48.810;12.352;2024-03-02T03:24:45;117.43;;;39.95;;
74674;SDS011;63200;48.810;12.352;2024-03-02T03:27:10;109.60;;;38.92;;
74674;SDS011;63200;48.810;12.352;2024-03-02T03:29:36;113.93;;;38.97;;
74674;SDS011;63200;48.810;12.352;2024-03-02T03:32:02;116.20;;;39.78;;
74674;SDS011;63200;48.810;12.352;2024-03-02T03:34:28;104.95;;;38.15;;
74674;SDS011;63200;48.810;12.352;2024-03-02T03:36:54;104.35;;;36.55;;
74674;SDS011;63200;48.810;12.352;2024-03-02T03:39:19;104.85;;;37.53;;
74674;SDS011;63200;48.810;12.352;2024-03-02T03:41:44;100.50;;;37.88;;
74674;SDS011;63200;48.810;12.352;2024-03-02T03:44:10;98.72;;;36.40;;
74674;SDS011;63200;48.810;12.352;2024-03-02T03:46:35;92.30;;;36.03;;
74674;SDS011;63200;48.810;12.352;2024-03-02T03:49:00;94.60;;;36.35;;
74674;SDS011;63200;48.810;12.352;2024-03-02T03:51:26;94.10;;;36.45;;
74674;SDS011;63200;48.810;12.352;2024-03-02T03:53:51;98.22;;;36.63;;
74674;SDS011;63200;48.810;12.352;2024-03-02T03:56:16;98.13;;;36.13;;
74674;SDS011;63200;48.810;12.352;2024-03-02T03:58:41;101.28;;;37.67;;
74674;SDS011;63200;48.810;12.352;2024-03-02T04:01:07;113.38;;;41.00;;
74674;SDS011;63200;48.810;12.352;2024-03-02T04:03:32;118.57;;;41.05;;
74674;SDS011;63200;48.810;12.352;2024-03-02T04:05:58;123.07;;;41.78;;
74674;SDS011;63200;48.810;12.352;2024-03-02T04:08:23;114.43;;;40.78;;
74674;SDS011;63200;48.810;12.352;2024-03-02T04:10:48;137.13;;;44.90;;
74674;SDS011;63200;48.810;12.352;2024-03-02T04:13:13;137.40;;;43.67;;
74674;SDS011;63200;48.810;12.352;2024-03-02T04:15:39;150.45;;;45.38;;
74674;SDS011;63200;48.810;12.352;2024-03-02T04:18:05;145.10;;;43.90;;
74674;SDS011;63200;48.810;12.352;2024-03-02T04:20:31;135.20;;;44.28;;
74674;SDS011;63200;48.810;12.352;2024-03-02T04:22:56;137.65;;;42.08;;
74674;SDS011;63200;48.810;12.352;2024-03-02T04:25:21;145.43;;;42.90;;
74674;SDS011;63200;48.810;12.352;2024-03-02T04:27:47;145.68;;;44.22;;
74674;SDS011;63200;48.810;12.352;2024-03-02T04:30:12;141.45;;;42.13;;
74674;SDS011;63200;48.810;12.352;2024-03-02T04:32:37;142.35;;;41.38;;
74674;SDS011;63200;48.810;12.352;2024-03-02T04:35:03;126.05;;;40.58;;
74674;SDS011;63200;48.810;12.352;2024-03-02T04:37:30;132.38;;;41.58;;
74674;SDS011;63200;48.810;12.352;2024-03-02T04:39:56;139.13;;;40.72;;
74674;SDS011;63200;48.810;12.352;2024-03-02T04:42:21;128.55;;;41.13;;
74674;SDS011;63200;48.810;12.352;2024-03-02T04:44:47;127.63;;;41.15;;
74674;SDS011;63200;48.810;12.352;2024-03-02T04:47:13;126.43;;;40.83;;
74674;SDS011;63200;48.810;12.352;2024-03-02T04:49:38;128.90;;;39.70;;
74674;SDS011;63200;48.810;12.352;2024-03-02T04:52:03;121.97;;;38.92;;
74674;SDS011;63200;48.810;12.352;2024-03-02T04:54:29;119.55;;;41.63;;
74674;SDS011;63200;48.810;12.352;2024-03-02T04:56:54;120.60;;;39.10;;
74674;SDS011;63200;48.810;12.352;2024-03-02T04:59:19;134.05;;;40.05;;
74674;SDS011;63200;48.810;12.352;2024-03-02T05:01:45;117.30;;;39.63;;
74674;SDS011;63200;48.810;12.352;2024-03-02T05:04:11;118.40;;;38.35;;
74674;SDS011;63200;48.810;12.352;2024-03-02T05:06:39;121.22;;;39.95;;
74674;SDS011;63200;48.810;12.352;2024-03-02T05:09:10;137.63;;;41.40;;
74674;SDS011;63200;48.810;12.352;2024-03-02T05:11:35;138.98;;;42.20;;
74674;SDS011;63200;48.810;12.352;2024-03-02T05:14:03;135.90;;;43.10;;
74674;SDS011;63200;48.810;12.352;2024-03-02T05:16:34;159.25;;;45.22;;
74674;SDS011;63200;48.810;12.352;2024-03-02T05:19:01;150.68;;;45.22;;
74674;SDS011;63200;48.810;12.352;2024-03-02T05:21:27;149.48;;;44.55;;
74674;SDS011;63200;48.810;12.352;2024-03-02T05:23:52;147.65;;;43.40;;
74674;SDS011;63200;48.810;12.352;2024-03-02T05:26:17;159.07;;;45.33;;
74674;SDS011;63200;48.810;12.352;2024-03-02T05:28:43;148.68;;;41.90;;
74674;SDS011;63200;48.810;12.352;2024-03-02T05:31:11;139.27;;;40.60;;
74674;SDS011;63200;48.810;12.352;2024-03-02T05:33:39;143.38;;;40.40;;
74674;SDS011;63200;48.810;12.352;2024-03-02T05:36:05;148.02;;;39.40;;
74674;SDS011;63200;48.810;12.352;2024-03-02T05:38:31;141.52;;;42.85;;
74674;SDS011;63200;48.810;12.352;2024-03-02T05:40:57;187.85;;;43.72;;
74674;SDS011;63200;48.810;12.352;2024-03-02T05:43:22;189.30;;;42.90;;
74674;SDS011;63200;48.810;12.352;2024-03-02T05:45:47;195.70;;;39.58;;
74674;SDS011;63200;48.810;12.352;2024-03-02T05:48:12;233.98;;;42.95;;
74674;SDS011;63200;48.810;12.352;2024-03-02T05:50:38;187.18;;;39.97;;
74674;SDS011;63200;48.810;12.352;2024-03-02T05:53:03;255.77;;;42.08;;
74674;SDS011;63200;48.810;12.352;2024-03-02T05:55:29;194.60;;;40.22;;
74674;SDS011;63200;48.810;12.352;2024-03-02T05:57:54;191.18;;;39.38;;
74674;SDS011;63200;48.810;12.352;2024-03-02T06:00:32;255.95;;;40.60;;
74674;SDS011;63200;48.810;12.352;2024-03-02T06:02:57;331.88;;;42.65;;
74674;SDS011;63200;48.810;12.352;2024-03-02T06:05:23;189.63;;;39.20;;
74674;SDS011;63200;48.810;12.352;2024-03-02T06:07:49;234.95;;;40.05;;
74674;SDS011;63200;48.810;12.352;2024-03-02T06:10:15;207.48;;;39.05;;
74674;SDS011;63200;48.810;12.352;2024-03-02T06:12:40;272.08;;;40.80;;
74674;SDS011;63200;48.810;12.352;2024-03-02T06:15:06;190.93;;;40.75;;
74674;SDS011;63200;48.810;12.352;2024-03-02T06:17:31;160.50;;;38.08;;
74674;SDS011;63200;48.810;12.352;2024-03-02T06:19:57;366.85;;;42.38;;
74674;SDS011;63200;48.810;12.352;2024-03-02T06:22:22;191.88;;;40.10;;
74674;SDS011;63200;48.810;12.352;2024-03-02T06:24:50;193.65;;;37.33;;
74674;SDS011;63200;48.810;12.352;2024-03-02T06:27:15;137.65;;;37.88;;
74674;SDS011;63200;48.810;12.352;2024-03-02T06:29:41;160.95;;;41.40;;
74674;SDS011;63200;48.810;12.352;2024-03-02T06:32:06;225.13;;;43.58;;
74674;SDS011;63200;48.810;12.352;2024-03-02T06:34:32;250.45;;;44.00;;
74674;SDS011;63200;48.810;12.352;2024-03-02T06:36:57;262.52;;;47.17;;
74674;SDS011;63200;48.810;12.352;2024-03-02T06:39:22;188.50;;;44.17;;
74674;SDS011;63200;48.810;12.352;2024-03-02T06:41:48;159.00;;;41.45;;
74674;SDS011;63200;48.810;12.352;2024-03-02T06:44:13;164.02;;;41.80;;
74674;SDS011;63200;48.810;12.352;2024-03-02T06:46:38;226.13;;;45.25;;
74674;SDS011;63200;48.810;12.352;2024-03-02T06:49:04;191.30;;;43.40;;
74674;SDS011;63200;48.810;12.352;2024-03-02T06:51:29;145.20;;;41.13;;
74674;SDS011;63200;48.810;12.352;2024-03-02T06:53:55;131.63;;;39.28;;
74674;SDS011;63200;48.810;12.352;2024-03-02T06:56:20;153.30;;;42.25;;
74674;SDS011;63200;48.810;12.352;2024-03-02T06:58:46;170.40;;;44.35;;
74674;SDS011;63200;48.810;12.352;2024-03-02T07:01:11;192.77;;;45.53;;
74674;SDS011;63200;48.810;12.352;2024-03-02T07:03:37;218.13;;;50.80;;
74674;SDS011;63200;48.810;12.352;2024-03-02T07:06:04;184.25;;;46.47;;
74674;SDS011;63200;48.810;12.352;2024-03-02T07:08:29;192.93;;;45.22;;
74674;SDS011;63200;48.810;12.352;2024-03-02T07:10:55;210.05;;;49.05;;
74674;SDS011;63200;48.810;12.352;2024-03-02T07:13:20;215.52;;;50.45;;
74674;SDS011;63200;48.810;12.352;2024-03-02T07:15:45;225.75;;;49.25;;
74674;SDS011;63200;48.810;12.352;2024-03-02T07:18:39;185.40;;;45.63;;
74674;SDS011;63200;48.810;12.352;2024-03-02T07:21:10;200.00;;;45.47;;
74674;SDS011;63200;48.810;12.352;2024-03-02T07:23:36;200.25;;;47.35;;
74674;SDS011;63200;48.810;12.352;2024-03-02T07:26:01;198.73;;;47.25;;
74674;SDS011;63200;48.810;12.352;2024-03-02T07:28:26;200.10;;;47.13;;
74674;SDS011;63200;48.810;12.352;2024-03-02T07:31:01;208.73;;;45.67;;
74674;SDS011;63200;48.810;12.352;2024-03-02T07:33:29;156.38;;;44.60;;
74674;SDS011;63200;48.810;12.352;2024-03-02T07:35:57;148.48;;;41.92;;
74674;SDS011;63200;48.810;12.352;2024-03-02T07:38:27;151.02;;;40.85;;
74674;SDS011;63200;48.810;12.352;2024-03-02T07:40:53;142.10;;;39.15;;
74674;SDS011;63200;48.810;12.352;2024-03-02T07:43:19;130.77;;;38.58;;
74674;SDS011;63200;48.810;12.352;2024-03-02T07:45:45;119.63;;;36.72;;
74674;SDS011;63200;48.810;12.352;2024-03-02T07:48:11;99.13;;;36.50;;
74674;SDS011;63200;48.810;12.352;2024-03-02T07:50:36;98.28;;;33.80;;
74674;SDS011;63200;48.810;12.352;2024-03-02T07:53:03;89.00;;;32.88;;
74674;SDS011;63200;48.810;12.352;2024-03-02T07:55:29;96.18;;;33.05;;
74674;SDS011;63200;48.810;12.352;2024-03-02T07:57:56;87.70;;;33.05;;
74674;SDS011;63200;48.810;12.352;2024-03-02T08:00:21;88.47;;;32.25;;
74674;SDS011;63200;48.810;12.352;2024-03-02T08:02:48;86.13;;;32.45;;
74674;SDS011;63200;48.810;12.352;2024-03-02T08:05:13;91.82;;;35.20;;
74674;SDS011;63200;48.810;12.352;2024-03-02T08:07:39;89.82;;;33.25;;
74674;SDS011;63200;48.810;12.352;2024-03-02T08:10:05;76.03;;;31.52;;
74674;SDS011;63200;48.810;12.352;2024-03-02T08:12:30;69.75;;;28.50;;
74674;SDS011;63200;48.810;12.352;2024-03-02T08:14:56;70.90;;;29.55;;
74674;SDS011;63200;48.810;12.352;2024-03-02T08:17:21;68.10;;;28.35;;
74674;SDS011;63200;48.810;12.352;2024-03-02T08:19:47;76.63;;;33.28;;
74674;SDS011;63200;48.810;12.352;2024-03-02T08:22:13;68.07;;;29.33;;
74674;SDS011;63200;48.810;12.352;2024-03-02T08:24:40;60.65;;;28.55;;
74674;SDS011;63200;48.810;12.352;2024-03-02T08:27:05;79.88;;;32.90;;
74674;SDS011;63200;48.810;12.352;2024-03-02T08:29:31;83.25;;;33.28;;
74674;SDS011;63200;48.810;12.352;2024-03-02T08:31:56;84.65;;;33.05;;
74674;SDS011;63200;48.810;12.352;2024-03-02T08:34:22;80.53;;;35.58;;
74674;SDS011;63200;48.810;12.352;2024-03-02T08:36:47;89.30;;;32.88;;
74674;SDS011;63200;48.810;12.352;2024-03-02T08:39:13;76.60;;;32.17;;
74674;SDS011;63200;48.810;12.352;2024-03-02T08:41:41;84.22;;;31.73;;
74674;SDS011;63200;48.810;12.352;2024-03-02T08:44:08;81.28;;;34.22;;
74674;SDS011;63200;48.810;12.352;2024-03-02T08:46:33;84.25;;;32.42;;
74674;SDS011;63200;48.810;12.352;2024-03-02T08:48:59;82.60;;;35.05;;
74674;SDS011;63200;48.810;12.352;2024-03-02T08:51:24;84.63;;;34.25;;
74674;SDS011;63200;48.810;12.352;2024-03-02T08:53:50;84.68;;;38.92;;
74674;SDS011;63200;48.810;12.352;2024-03-02T08:56:15;102.78;;;38.70;;
74674;SDS011;63200;48.810;12.352;2024-03-02T08:58:41;101.50;;;33.85;;
74674;SDS011;63200;48.810;12.352;2024-03-02T09:01:06;85.97;;;36.55;;
74674;SDS011;63200;48.810;12.352;2024-03-02T09:03:33;75.40;;;34.78;;
74674;SDS011;63200;48.810;12.352;2024-03-02T09:05:59;75.65;;;31.42;;
74674;SDS011;63200;48.810;12.352;2024-03-02T09:08:25;78.95;;;35.58;;
74674;SDS011;63200;48.810;12.352;2024-03-02T09:10:50;80.05;;;32.28;;
74674;SDS011;63200;48.810;12.352;2024-03-02T09:13:15;71.57;;;37.70;;
74674;SDS011;63200;48.810;12.352;2024-03-02T09:15:41;90.53;;;39.58;;
74674;SDS011;63200;48.810;12.352;2024-03-02T09:18:07;86.25;;;39.08;;
74674;SDS011;63200;48.810;12.352;2024-03-02T09:20:32;86.55;;;35.15;;
74674;SDS011;63200;48.810;12.352;2024-03-02T09:22:57;91.22;;;38.83;;
74674;SDS011;63200;48.810;12.352;2024-03-02T09:25:22;92.45;;;41.63;;
74674;SDS011;63200;48.810;12.352;2024-03-02T09:27:48;94.20;;;35.75;;
74674;SDS011;63200;48.810;12.352;2024-03-02T09:30:13;96.88;;;35.47;;
74674;SDS011;63200;48.810;12.352;2024-03-02T09:32:39;76.25;;;33.63;;
74674;SDS011;63200;48.810;12.352;2024-03-02T09:35:04;87.07;;;37.00;;
74674;SDS011;63200;48.810;12.352;2024-03-02T09:37:30;100.00;;;40.65;;
74674;SDS011;63200;48.810;12.352;2024-03-02T09:39:56;85.68;;;35.17;;
74674;SDS011;63200;48.810;12.352;2024-03-02T09:42:21;95.80;;;41.75;;
74674;SDS011;63200;48.810;12.352;2024-03-02T09:44:47;106.60;;;40.40;;
74674;SDS011;63200;48.810;12.352;2024-03-02T09:47:13;113.43;;;41.75;;
74674;SDS011;63200;48.810;12.352;2024-03-02T09:49:38;108.47;;;41.92;;
74674;SDS011;63200;48.810;12.352;2024-03-02T09:52:05;101.05;;;42.47;;
74674;SDS011;63200;48.810;12.352;2024-03-02T09:54:31;119.63;;;35.92;;
74674;SDS011;63200;48.810;12.352;2024-03-02T09:56:57;97.82;;;41.28;;
74674;SDS011;63200;48.810;12.352;2024-03-02T09:59:22;100.82;;;35.28;;
74674;SDS011;63200;48.810;12.352;2024-03-02T10:02:00;82.28;;;32.67;;
74674;SDS011;63200;48.810;12.352;2024-03-02T10:04:28;91.82;;;37.83;;
74674;SDS011;63200;48.810;12.352;2024-03-02T10:09:40;89.82;;;35.33;;
74674;SDS011;63200;48.810;12.352;2024-03-02T10:12:07;97.35;;;38.78;;
74674;SDS011;63200;48.810;12.352;2024-03-02T10:14:34;89.38;;;36.03;;
74674;SDS011;63200;48.810;12.352;2024-03-02T10:17:03;91.82;;;35.25;;
74674;SDS011;63200;48.810;12.352;2024-03-02T10:19:29;78.22;;;31.30;;
74674;SDS011;63200;48.810;12.352;2024-03-02T10:21:59;72.13;;;29.80;;
74674;SDS011;63200;48.810;12.352;2024-03-02T10:24:27;79.85;;;32.00;;
74674;SDS011;63200;48.810;12.352;2024-03-02T10:26:59;79.32;;;32.45;;
74674;SDS011;63200;48.810;12.352;2024-03-02T10:29:24;79.43;;;30.92;;
74674;SDS011;63200;48.810;12.352;2024-03-02T10:31:53;72.63;;;29.95;;
74674;SDS011;63200;48.810;12.352;2024-03-02T10:34:19;83.00;;;31.05;;
74674;SDS011;63200;48.810;12.352;2024-03-02T10:36:46;80.88;;;29.33;;
74674;SDS011;63200;48.810;12.352;2024-03-02T10:39:12;78.95;;;30.80;;
74674;SDS011;63200;48.810;12.352;2024-03-02T10:41:39;72.90;;;29.10;;
74674;SDS011;63200;48.810;12.352;2024-03-02T10:44:06;78.18;;;32.55;;
74674;SDS011;63200;48.810;12.352;2024-03-02T10:46:33;75.00;;;32.75;;
74674;SDS011;63200;48.810;12.352;2024-03-02T10:48:59;78.10;;;29.85;;
74674;SDS011;63200;48.810;12.352;2024-03-02T10:51:29;73.13;;;29.58;;
74674;SDS011;63200;48.810;12.352;2024-03-02T10:54:00;77.00;;;29.30;;
74674;SDS011;63200;48.810;12.352;2024-03-02T10:56:33;74.50;;;27.42;;
74674;SDS011;63200;48.810;12.352;2024-03-02T10:59:11;80.05;;;31.60;;
74674;SDS011;63200;48.810;12.352;2024-03-02T11:01:54;71.45;;;27.85;;
74674;SDS011;63200;48.810;12.352;2024-03-02T11:04:22;71.18;;;29.95;;
74674;SDS011;63200;48.810;12.352;2024-03-02T11:06:50;83.47;;;31.52;;
74674;SDS011;63200;48.810;12.352;2024-03-02T11:09:18;69.72;;;25.90;;
74674;SDS011;63200;48.810;12.352;2024-03-02T11:11:48;66.07;;;26.52;;
74674;SDS011;63200;48.810;12.352;2024-03-02T11:14:21;68.22;;;27.67;;
74674;SDS011;63200;48.810;12.352;2024-03-02T11:16:50;75.13;;;29.08;;
74674;SDS011;63200;48.810;12.352;2024-03-02T11:19:16;75.15;;;29.27;;
74674;SDS011;63200;48.810;12.352;2024-03-02T11:21:42;69.97;;;27.33;;
74674;SDS011;63200;48.810;12.352;2024-03-02T11:27:03;71.18;;;29.00;;
74674;SDS011;63200;48.810;12.352;2024-03-02T11:32:02;72.35;;;30.38;;
74674;SDS011;63200;48.810;12.352;2024-03-02T11:34:32;68.38;;;26.65;;
74674;SDS011;63200;48.810;12.352;2024-03-02T11:36:59;64.85;;;25.88;;
74674;SDS011;63200;48.810;12.352;2024-03-02T11:39:26;68.75;;;29.52;;
74674;SDS011;63200;48.810;12.352;2024-03-02T11:41:55;60.60;;;26.27;;
74674;SDS011;63200;48.810;12.352;2024-03-02T11:44:21;66.82;;;27.98;;
74674;SDS011;63200;48.810;12.352;2024-03-02T11:46:48;62.10;;;28.25;;
74674;SDS011;63200;48.810;12.352;2024-03-02T11:49:26;62.75;;;27.55;;
74674;SDS011;63200;48.810;12.352;2024-03-02T11:52:02;60.38;;;27.05;;
74674;SDS011;63200;48.810;12.352;2024-03-02T11:54:30;62.58;;;26.73;;
74674;SDS011;63200;48.810;12.352;2024-03-02T11:56:59;65.15;;;29.20;;
74674;SDS011;63200;48.810;12.352;2024-03-02T11:59:27;61.80;;;27.95;;
74674;SDS011;63200;48.810;12.352;2024-03-02T12:01:53;64.13;;;27.30;;
74674;SDS011;63200;48.810;12.352;2024-03-02T12:04:19;61.92;;;28.08;;
74674;SDS011;63200;48.810;12.352;2024-03-02T12:06:44;63.15;;;27.48;;
74674;SDS011;63200;48.810;12.352;2024-03-02T12:09:11;60.97;;;27.40;;
74674;SDS011;63200;48.810;12.352;2024-03-02T12:11:37;66.38;;;27.60;;
74674;SDS011;63200;48.810;12.352;2024-03-02T12:14:02;68.72;;;30.23;;
74674;SDS011;63200;48.810;12.352;2024-03-02T12:16:29;68.35;;;31.52;;
74674;SDS011;63200;48.810;12.352;2024-03-02T12:18:54;67.78;;;30.00;;
74674;SDS011;63200;48.810;12.352;2024-03-02T12:21:20;68.00;;;30.95;;
74674;SDS011;63200;48.810;12.352;2024-03-02T12:23:45;67.60;;;31.25;;
74674;SDS011;63200;48.810;12.352;2024-03-02T12:26:11;71.95;;;31.27;;
74674;SDS011;63200;48.810;12.352;2024-03-02T12:28:36;68.30;;;26.92;;
74674;SDS011;63200;48.810;12.352;2024-03-02T12:31:02;64.47;;;29.23;;
74674;SDS011;63200;48.810;12.352;2024-03-02T12:33:27;64.32;;;27.90;;
74674;SDS011;63200;48.810;12.352;2024-03-02T12:35:54;62.80;;;28.77;;
74674;SDS011;63200;48.810;12.352;2024-03-02T12:38:19;68.05;;;29.05;;
74674;SDS011;63200;48.810;12.352;2024-03-02T12:40:47;65.95;;;29.27;;
74674;SDS011;63200;48.810;12.352;2024-03-02T12:43:13;62.55;;;26.98;;
74674;SDS011;63200;48.810;12.352;2024-03-02T12:45:38;66.45;;;28.08;;
74674;SDS011;63200;48.810;12.352;2024-03-02T12:48:04;67.47;;;30.40;;
74674;SDS011;63200;48.810;12.352;2024-03-02T12:50:30;66.07;;;29.75;;
74674;SDS011;63200;48.810;12.352;2024-03-02T12:52:55;63.00;;;26.25;;
74674;SDS011;63200;48.810;12.352;2024-03-02T12:55:21;58.47;;;24.63;;
74674;SDS011;63200;48.810;12.352;2024-03-02T12:57:47;58.97;;;26.70;;
74674;SDS011;63200;48.810;12.352;2024-03-02T13:00:17;67.28;;;28.20;;
74674;SDS011;63200;48.810;12.352;2024-03-02T13:02:45;57.45;;;24.00;;
74674;SDS011;63200;48.810;12.352;2024-03-02T13:05:11;54.65;;;27.83;;
74674;SDS011;63200;48.810;12.352;2024-03-02T13:07:37;57.38;;;25.98;;
74674;SDS011;63200;48.810;12.352;2024-03-02T13:10:03;55.78;;;24.35;;
74674;SDS011;63200;48.810;12.352;2024-03-02T13:12:29;53.28;;;26.27;;
74674;SDS011;63200;48.810;12.352;2024-03-02T13:14:57;52.17;;;25.30;;
74674;SDS011;63200;48.810;12.352;2024-03-02T13:17:23;48.80;;;23.63;;
74674;SDS011;63200;48.810;12.352;2024-03-02T13:19:56;51.20;;;24.40;;
74674;SDS011;63200;48.810;12.352;2024-03-02T13:22:23;49.05;;;24.80;;
74674;SDS011;63200;48.810;12.352;2024-03-02T13:24:49;48.55;;;22.55;;
74674;SDS011;63200;48.810;12.352;2024-03-02T13:27:15;49.65;;;24.77;;
74674;SDS011;63200;48.810;12.352;2024-03-02T13:29:41;47.13;;;21.70;;
74674;SDS011;63200;48.810;12.352;2024-03-02T13:32:07;54.88;;;22.88;;
74674;SDS011;63200;48.810;12.352;2024-03-02T13:34:32;55.75;;;24.92;;
74674;SDS011;63200;48.810;12.352;2024-03-02T13:36:57;45.92;;;22.08;;
74674;SDS011;63200;48.810;12.352;2024-03-02T13:39:23;50.65;;;23.42;;
74674;SDS011;63200;48.810;12.352;2024-03-02T13:41:48;50.95;;;23.83;;
74674;SDS011;63200;48.810;12.352;2024-03-02T13:44:20;46.17;;;21.23;;
74674;SDS011;63200;48.810;12.352;2024-03-02T13:46:46;47.20;;;24.30;;
74674;SDS011;63200;48.810;12.352;2024-03-02T13:49:12;48.42;;;22.50;;
74674;SDS011;63200;48.810;12.352;2024-03-02T13:51:37;43.72;;;20.77;;
74674;SDS011;63200;48.810;12.352;2024-03-02T13:54:02;45.58;;;22.13;;
74674;SDS011;63200;48.810;12.352;2024-03-02T13:56:28;44.80;;;21.65;;
74674;SDS011;63200;48.810;12.352;2024-03-02T13:58:54;43.85;;;20.88;;
74674;SDS011;63200;48.810;12.352;2024-03-02T14:01:19;43.08;;;20.30;;
74674;SDS011;63200;48.810;12.352;2024-03-02T14:03:45;42.05;;;21.23;;
74674;SDS011;63200;48.810;12.352;2024-03-02T14:06:11;51.58;;;22.40;;
74674;SDS011;63200;48.810;12.352;2024-03-02T14:08:36;47.22;;;21.27;;